Portada
METAR-TAF:

METAR-TAF

Aeroports :

Aeroport d'Oujda-Angads

Oujda, Marroc

latitud: 34-47N, longitud: 001-56W, altitud: 468 m

Observació

L'informe es va fer fa 19 minuts, a les 08:30 UTC
Vent 5 kt del Sud, variant entre Sud-Est i Sud-Oest
Temperatura 27°C
Humitat 34%
Pressió 1015 hPa
Visibilitat 10 km o més
sense núvols per sota de 1500 mi sense presència de cumulonimbus.

METAR: GMFO 060830Z 17005KT 130V220 CAVOK 27/10 Q1015 NOSIG

Hora: 09:49 (08:49 UTC)

Pronòstic

L'informe es va fer fa 3 hores i 49 minuts, a les 05:00 UTC
Pronòstic vàlid del 06 a les 06 UTC al 07 a les 12 UTC
Vent 1 kt amb direcció variable
Visibilitat 10 km o més
sense núvols per sota de 1500 mi sense presència de cumulonimbus.
Probabilitat 30% :
Temporalment
l' 06 a les 07 UTC al 06 a les 14 UTC
Vent 4 kt del Sud
Visibilitat 10 km o més
Núvols disperses a una alçada de 1600 ft

TAF: GMFO 060500Z 0606/0712 VRB01KT CAVOK PROB30 TEMPO 0607/0614 19004KT 9999 SCT016

Observacions i pronòstics meteorològics de més de 4000 aeroports (METAR i TAF).

Les estacions disponibles són els punts grocs i vermells al mapa.

Posi el ratolí al punt desitjat per veure el nom de l'estació.

Feu clic per veure les observacions i els pronòstics meteorològics.

Per canviar el mapa: feu clic els botons verds amb una creu de color negre per apropar; al botó verd amb un guió per allunyar la imatge; o en les fletxes verdes per a mapes adjacents.


METAR-TAF: